Time;durP1;ratioP1;P1;durP2;ratioP2;P2;SDS_P1;SDS_P2;PMS_P1;PMS_P2;Temp;Humidity;BMP_temperature;BMP_pressure;BME280_temperature;BME280_humidity;BME280_pressure;Samples;Min_cycle;Max_cycle;Signal;HPM_P1;HPM_P2
2021/11/11 00:00:30;;;;;;;;;63.75;52.00;;;;;-147.17;100.00;50237.72;5037905;28;51660;-67
2021/11/11 00:02:57;;;;;;;;;81.00;62.50;;;;;-147.17;100.00;50221.97;5042967;28;51908;-67
2021/11/11 00:05:23;;;;;;;;;83.50;66.00;;;;;-147.17;100.00;50245.59;5044513;28;51311;-67
2021/11/11 00:07:49;;;;;;;;;77.50;59.50;;;;;-147.17;100.00;50245.59;5047262;28;51283;-67
2021/11/11 00:10:17;;;;;;;;;59.75;51.00;;;;;-147.17;100.00;50241.66;5045008;28;51304;-67
2021/11/11 00:12:44;;;;;;;;;66.50;54.25;;;;;-147.17;100.00;50245.59;5043418;28;52130;-67
2021/11/11 00:15:12;;;;;;;;;66.50;53.50;;;;;-147.17;100.00;50229.84;5050917;27;51307;-68
2021/11/11 00:17:39;;;;;;;;;53.50;44.50;;;;;-147.17;100.00;50259.38;5041516;28;52203;-67
2021/11/11 00:20:07;;;;;;;;;65.50;51.50;;;;;-147.17;100.00;50237.72;5043711;28;52666;-67
2021/11/11 00:22:33;;;;;;;;;70.25;56.50;;;;;-147.17;100.00;50243.63;5039080;28;52459;-67
2021/11/11 00:24:59;;;;;;;;;66.75;54.25;;;;;-147.17;100.00;50265.28;5043145;28;51151;-68
2021/11/11 00:27:25;;;;;;;;;72.50;56.00;;;;;-147.17;100.00;50241.66;5043990;28;51078;-67
2021/11/11 00:29:51;;;;;;;;;69.00;54.25;;;;;-147.17;100.00;50249.53;5049928;28;51030;-64
2021/11/11 00:32:20;;;;;;;;;68.00;53.75;;;;;-147.17;100.00;50237.72;5042557;28;53677;-65
2021/11/11 00:34:51;;;;;;;;;42.75;36.00;;;;;-147.17;100.00;50223.94;5047732;28;51025;-66
2021/11/11 00:37:22;;;;;;;;;58.50;48.25;;;;;-147.17;100.00;50233.78;5048079;28;51177;-66
2021/11/11 00:39:50;;;;;;;;;67.50;54.75;;;;;-147.17;100.00;50229.84;5048520;28;51286;-65
2021/11/11 00:42:17;;;;;;;;;73.25;56.25;;;;;-147.17;100.00;50241.66;5045944;28;51370;-64
2021/11/11 00:44:48;;;;;;;;;64.00;53.75;;;;;-147.17;100.00;50237.72;5040990;28;50954;-66
2021/11/11 00:47:13;;;;;;;;;73.50;56.50;;;;;-147.17;100.00;50255.44;5047390;28;51136;-67
2021/11/11 00:49:40;;;;;;;;;67.50;53.75;;;;;-147.17;100.00;50261.34;5042366;28;51368;-66
2021/11/11 00:52:07;;;;;;;;;70.25;54.75;;;;;-147.17;100.00;50247.56;5042863;28;51871;-63
2021/11/11 00:54:34;;;;;;;;;71.75;56.50;;;;;-147.17;100.00;50251.50;5042981;28;51246;-63
2021/11/11 00:56:59;;;;;;;;;66.50;53.25;;;;;-147.17;100.00;50269.22;5053379;28;51073;-63
2021/11/11 00:59:25;;;;;;;;;67.25;54.75;;;;;-147.17;100.00;50269.22;5035819;28;51232;-62
2021/11/11 01:01:50;;;;;;;;;64.25;51.00;;;;;-147.17;100.00;50257.41;5039112;28;51243;-61
2021/11/11 01:04:15;;;;;;;;;68.50;54.75;;;;;-147.17;100.00;50253.47;5045022;28;51135;-61
2021/11/11 01:06:41;;;;;;;;;71.25;56.50;;;;;-147.17;100.00;50241.66;5053984;28;51136;-62
2021/11/11 01:09:06;;;;;;;;;71.50;56.00;;;;;-147.17;100.00;50261.34;5052350;28;51157;-62
2021/11/11 01:11:32;;;;;;;;;68.00;54.00;;;;;-147.17;100.00;50253.47;5052699;28;51691;-62
2021/11/11 01:13:57;;;;;;;;;64.50;51.50;;;;;-147.17;100.00;50251.50;5051408;28;51172;-61
2021/11/11 01:16:23;;;;;;;;;63.50;52.25;;;;;-147.17;100.00;50265.28;5049001;28;51271;-61
2021/11/11 01:18:49;;;;;;;;;63.50;51.25;;;;;-147.17;100.00;50231.81;5052841;28;51066;-62
2021/11/11 01:21:15;;;;;;;;;69.75;53.75;;;;;-147.17;100.00;50265.28;5051589;28;51824;-61
2021/11/11 01:23:41;;;;;;;;;69.25;55.00;;;;;-147.17;100.00;50263.31;5051792;28;51104;-62
2021/11/11 01:26:07;;;;;;;;;61.25;50.00;;;;;-147.17;100.00;50245.59;5052479;28;50983;-61
2021/11/11 01:28:34;;;;;;;;;66.50;54.75;;;;;-147.17;100.00;50259.38;5054159;28;51191;-61
2021/11/11 01:31:00;;;;;;;;;66.75;54.00;;;;;-147.17;100.00;50257.41;5045771;28;51059;-60
2021/11/11 01:33:25;;;;;;;;;69.50;52.25;;;;;-147.17;100.00;50257.41;5043175;28;51121;-63
2021/11/11 01:35:51;;;;;;;;;67.75;55.75;;;;;-147.17;100.00;50265.28;5040865;28;51268;-62
2021/11/11 01:38:17;;;;;;;;;62.00;51.50;;;;;-147.17;100.00;50253.47;5051569;28;51287;-61
2021/11/11 01:40:43;;;;;;;;;62.50;52.00;;;;;-147.17;100.00;50249.53;5047460;28;52047;-61
2021/11/11 01:43:09;;;;;;;;;60.75;49.75;;;;;-147.17;100.00;50273.16;5047915;28;51230;-61
2021/11/11 01:45:38;;;;;;;;;67.00;50.00;;;;;-147.17;100.00;50233.78;5051485;28;51378;-61
2021/11/11 01:48:05;;;;;;;;;66.00;54.00;;;;;-147.17;100.00;50263.31;5042626;28;51014;-61
2021/11/11 01:50:31;;;;;;;;;64.25;50.00;;;;;-147.17;100.00;50273.16;5053161;28;51928;-61
2021/11/11 01:52:58;;;;;;;;;69.50;56.00;;;;;-147.17;100.00;50281.03;5047478;28;51055;-61
2021/11/11 01:55:23;;;;;;;;;66.50;51.50;;;;;-147.17;100.00;50253.47;5050670;28;52619;-62
2021/11/11 01:57:51;;;;;;;;;64.25;54.00;;;;;-147.17;100.00;50296.78;5033654;28;51419;-61
2021/11/11 02:00:22;;;;;;;;;62.50;52.00;;;;;-147.17;100.00;50265.28;5045020;28;52777;-61
2021/11/11 02:02:54;;;;;;;;;69.00;54.75;;;;;-147.17;100.00;50261.34;5049923;28;51283;-62
2021/11/11 02:05:19;;;;;;;;;62.75;49.75;;;;;-147.17;100.00;50259.38;5050282;28;51192;-61
2021/11/11 02:07:44;;;;;;;;;67.50;54.00;;;;;-147.17;100.00;50281.03;5051223;28;51302;-61
2021/11/11 02:10:11;;;;;;;;;63.00;50.50;;;;;-147.17;100.00;50257.41;5051122;28;52229;-62
2021/11/11 02:12:36;;;;;;;;;69.25;55.00;;;;;-147.17;100.00;50263.31;5035193;28;51065;-62
2021/11/11 02:15:02;;;;;;;;;66.75;55.00;;;;;-147.17;100.00;50249.53;5031644;28;51654;-62
2021/11/11 02:17:29;;;;;;;;;64.25;53.50;;;;;-147.17;100.00;50241.66;5041775;28;51175;-63
2021/11/11 02:20:06;;;;;;;;;62.50;51.00;;;;;-147.17;100.00;50277.09;5050067;28;52587;-62
2021/11/11 02:22:31;;;;;;;;;70.75;56.00;;;;;-147.17;100.00;50257.41;5037487;28;51246;-62
2021/11/11 02:24:57;;;;;;;;;63.25;52.25;;;;;-147.17;100.00;50257.41;5046699;28;52476;-62
2021/11/11 02:27:22;;;;;;;;;63.75;52.00;;;;;-147.17;100.00;50253.47;5053332;28;51122;-62
2021/11/11 02:29:48;;;;;;;;;63.50;53.00;;;;;-147.17;100.00;50277.09;5049242;28;51814;-62
2021/11/11 02:32:13;;;;;;;;;60.25;47.00;;;;;-147.17;100.00;50281.03;5049456;28;50943;-62
2021/11/11 02:34:39;;;;;;;;;57.75;49.50;;;;;-147.17;100.00;50275.13;5045465;28;51181;-61
2021/11/11 02:37:05;;;;;;;;;64.25;52.00;;;;;-147.17;100.00;50273.16;5052064;28;51357;-61
2021/11/11 02:39:32;;;;;;;;;64.00;52.75;;;;;-147.17;100.00;50271.19;5042014;28;51969;-61
2021/11/11 02:41:58;;;;;;;;;67.50;53.50;;;;;-147.17;100.00;50300.72;5041308;28;51099;-62
2021/11/11 02:44:25;;;;;;;;;61.00;50.25;;;;;-147.17;100.00;50263.31;5046619;28;51146;-61
2021/11/11 02:46:51;;;;;;;;;63.00;52.75;;;;;-147.17;100.00;50257.41;5045287;28;51958;-62
2021/11/11 02:49:17;;;;;;;;;67.25;55.25;;;;;-147.17;100.00;50286.94;5045773;28;51956;-62
2021/11/11 02:51:42;;;;;;;;;65.25;51.25;;;;;-147.17;100.00;50277.09;5032109;28;51033;-62
2021/11/11 02:54:07;;;;;;;;;62.50;49.75;;;;;-147.17;100.00;50249.53;5038266;28;51916;-62
2021/11/11 02:56:33;;;;;;;;;67.75;53.00;;;;;-147.17;100.00;50284.97;5047650;28;50999;-61
2021/11/11 02:58:58;;;;;;;;;67.00;51.50;;;;;-147.17;100.00;50243.63;5035040;28;51105;-61
2021/11/11 03:01:24;;;;;;;;;65.75;53.50;;;;;-147.17;100.00;50261.34;5041197;28;50981;-61
2021/11/11 03:03:49;;;;;;;;;65.50;54.00;;;;;-147.17;100.00;50261.34;5049883;28;51206;-62
2021/11/11 03:06:14;;;;;;;;;62.00;50.50;;;;;-147.17;100.00;50265.28;5051376;28;51156;-62
2021/11/11 03:08:40;;;;;;;;;61.50;50.25;;;;;-147.17;100.00;50257.41;5033962;28;51911;-62
2021/11/11 03:11:05;;;;;;;;;63.75;50.50;;;;;-147.17;100.00;50251.50;5030930;28;51106;-62
2021/11/11 03:13:31;;;;;;;;;58.25;49.75;;;;;-147.17;100.00;50249.53;5044514;28;51073;-61
2021/11/11 03:15:58;;;;;;;;;64.25;51.25;;;;;-147.17;100.00;50231.81;5045004;28;51306;-62
2021/11/11 03:18:23;;;;;;;;;60.50;51.00;;;;;-147.17;100.00;50265.28;5030269;28;54246;-61
2021/11/11 03:20:49;;;;;;;;;64.75;51.50;;;;;-147.17;100.00;50273.16;5047038;28;51267;-62
2021/11/11 03:23:14;;;;;;;;;59.75;49.00;;;;;-147.17;100.00;50286.94;5038752;28;51440;-62
2021/11/11 03:25:40;;;;;;;;;59.25;47.50;;;;;-147.17;100.00;50233.78;5051969;28;51066;-62
2021/11/11 03:28:06;;;;;;;;;62.00;50.00;;;;;-147.17;100.00;50216.06;5060596;28;52161;-62
2021/11/11 03:30:33;;;;;;;;;64.00;49.75;;;;;-147.17;100.00;50271.19;5050969;27;51652;-61
2021/11/11 03:32:59;;;;;;;;;66.75;51.50;;;;;-147.17;100.00;50255.44;5045849;28;51042;-65
2021/11/11 03:35:25;;;;;;;;;68.50;52.75;;;;;-147.17;100.00;50245.59;5045309;28;51156;-61
2021/11/11 03:37:52;;;;;;;;;67.00;51.75;;;;;-147.17;100.00;50255.44;5037843;28;51977;-61
2021/11/11 03:40:22;;;;;;;;;65.00;52.25;;;;;-147.17;100.00;50251.50;5048326;28;51074;-61
2021/11/11 03:42:49;;;;;;;;;64.50;51.75;;;;;-147.17;100.00;50253.47;5049528;28;51285;-61
2021/11/11 03:45:16;;;;;;;;;57.75;49.00;;;;;-147.17;100.00;50249.53;5042153;28;53933;-61
2021/11/11 03:47:42;;;;;;;;;61.00;48.25;;;;;-147.17;100.00;50255.44;5049863;28;51706;-61
2021/11/11 03:50:09;;;;;;;;;60.50;49.00;;;;;-147.17;100.00;50231.81;5044264;28;51222;-61
2021/11/11 03:52:35;;;;;;;;;70.25;54.00;;;;;-147.17;100.00;50257.41;5047691;28;51128;-61
2021/11/11 03:55:01;;;;;;;;;64.50;52.25;;;;;-147.17;100.00;50257.41;5046950;28;51055;-61
2021/11/11 03:57:27;;;;;;;;;61.00;50.00;;;;;-147.17;100.00;50267.25;5035728;28;50939;-61
2021/11/11 03:59:53;;;;;;;;;64.75;50.00;;;;;-147.17;100.00;50255.44;5044066;28;51105;-62
2021/11/11 04:02:23;;;;;;;;;58.00;48.25;;;;;-147.17;100.00;50241.66;5052426;28;51102;-63
2021/11/11 04:04:49;;;;;;;;;49.75;43.50;;;;;-147.17;100.00;50277.09;5050365;28;51743;-62
2021/11/11 04:07:15;;;;;;;;;61.50;50.75;;;;;-147.17;100.00;50263.31;5054741;28;52066;-61
2021/11/11 04:09:40;;;;;;;;;63.25;50.50;;;;;-147.17;100.00;50233.78;5047048;28;51134;-62
2021/11/11 04:12:06;;;;;;;;;59.00;48.50;;;;;-147.17;100.00;50267.25;5054255;28;51610;-62
2021/11/11 04:14:32;;;;;;;;;62.25;51.75;;;;;-147.17;100.00;50253.47;5052454;28;51274;-62
2021/11/11 04:16:57;;;;;;;;;62.00;46.75;;;;;-147.17;100.00;50251.50;5054832;28;51796;-62
2021/11/11 04:19:23;;;;;;;;;63.00;50.25;;;;;-147.17;100.00;50237.72;5051946;28;51101;-62
2021/11/11 04:21:48;;;;;;;;;56.75;47.75;;;;;-147.17;100.00;50249.53;5054673;28;50927;-62
2021/11/11 04:24:13;;;;;;;;;59.00;46.25;;;;;-147.17;100.00;50245.59;5054853;28;51347;-63
2021/11/11 04:27:05;;;;;;;;;58.25;46.00;;;;;-147.17;100.00;50271.19;5048083;28;51360;-62
2021/11/11 04:29:26;;;;;;;;;61.25;50.75;;;;;-147.17;100.00;50241.66;5050101;28;51090;-62
2021/11/11 04:31:56;;;;;;;;;62.50;50.50;;;;;-147.17;100.00;50241.66;5054503;28;51022;-61
2021/11/11 04:34:23;;;;;;;;;59.25;47.00;;;;;-147.17;100.00;50214.09;5050538;28;51152;-62
2021/11/11 04:59:31;;;;;;;;;62.25;48.00;;;;;-147.17;100.00;50239.69;5044553;28;51019;-62
2021/11/11 05:01:43;;;;;;;;;55.25;46.75;;;;;-147.17;100.00;50243.63;5046669;28;51170;-61
2021/11/11 05:04:09;;;;;;;;;64.00;49.50;;;;;-147.17;100.00;50243.63;5049365;28;51265;-62
2021/11/11 05:06:34;;;;;;;;;57.00;45.00;;;;;-147.17;100.00;50218.03;5042473;28;51172;-62
2021/11/11 05:09:00;;;;;;;;;62.25;51.25;;;;;-147.17;100.00;50229.84;5037282;28;51403;-62
2021/11/11 05:11:25;;;;;;;;;64.25;52.75;;;;;-147.17;100.00;50241.66;5051063;28;51286;-62
2021/11/11 05:13:52;;;;;;;;;67.00;54.25;;;;;-147.17;100.00;50245.59;5053720;28;50938;-62
2021/11/11 05:16:18;;;;;;;;;62.50;51.75;;;;;-147.17;100.00;50225.91;5053913;28;51042;-61
2021/11/11 05:18:43;;;;;;;;;63.50;52.25;;;;;-147.17;100.00;50241.66;5052449;28;51982;-61
2021/11/11 05:21:08;;;;;;;;;57.75;47.50;;;;;-147.17;100.00;50229.84;5041258;28;51266;-63
2021/11/11 05:23:34;;;;;;;;;62.50;51.00;;;;;-147.17;100.00;50214.09;5052958;28;51188;-61
2021/11/11 05:25:59;;;;;;;;;64.25;52.25;;;;;-147.17;100.00;50237.72;5053200;28;51154;-62
2021/11/11 05:28:25;;;;;;;;;63.75;51.50;;;;;-147.17;100.00;50233.78;5054581;28;51929;-60
2021/11/11 05:30:50;;;;;;;;;68.25;54.50;;;;;-147.17;100.00;50225.91;5042492;28;51227;-61
2021/11/11 05:33:16;;;;;;;;;63.50;52.75;;;;;-147.17;100.00;50198.34;5050751;28;51074;-62
2021/11/11 05:35:41;;;;;;;;;64.75;52.50;;;;;-147.17;100.00;50216.06;5054385;28;51065;-64
2021/11/11 05:38:07;;;;;;;;;63.00;53.25;;;;;-147.17;100.00;50261.34;5052358;28;53671;-63
2021/11/11 05:40:32;;;;;;;;;64.25;51.25;;;;;-147.17;100.00;50241.66;5046403;28;51085;-61
2021/11/11 05:42:58;;;;;;;;;62.00;51.00;;;;;-147.17;100.00;50239.69;5047968;28;51148;-61
2021/11/11 05:45:25;;;;;;;;;58.50;46.75;;;;;-147.17;100.00;50247.56;5053246;28;51184;-62
2021/11/11 05:47:50;;;;;;;;;63.25;51.50;;;;;-147.17;100.00;50225.91;5051536;28;51462;-62
2021/11/11 05:50:18;;;;;;;;;74.00;59.50;;;;;-147.17;100.00;50245.59;5052189;28;51303;-62
2021/11/11 05:52:43;;;;;;;;;68.25;55.50;;;;;-147.17;100.00;50271.19;5053352;28;51074;-63
2021/11/11 05:55:09;;;;;;;;;73.00;59.00;;;;;-147.17;100.00;50265.28;5052567;28;51206;-62
2021/11/11 05:57:35;;;;;;;;;72.50;59.75;;;;;-147.17;100.00;50245.59;5051583;28;51930;-62
2021/11/11 06:00:04;;;;;;;;;73.25;59.75;;;;;-147.17;100.00;50261.34;5049723;28;51087;-62
2021/11/11 06:02:29;;;;;;;;;65.50;55.25;;;;;-147.17;100.00;50281.03;5048232;28;50977;-63
2021/11/11 06:04:55;;;;;;;;;63.25;51.25;;;;;-147.17;100.00;50253.47;5052298;28;51141;-62
2021/11/11 06:07:20;;;;;;;;;63.50;51.25;;;;;-147.17;100.00;50265.28;5051795;28;51294;-62
2021/11/11 06:09:46;;;;;;;;;64.50;51.75;;;;;-147.17;100.00;50279.06;5052243;28;51118;-62
2021/11/11 06:12:11;;;;;;;;;58.25;47.50;;;;;-147.17;100.00;50257.41;5043995;28;51726;-62
2021/11/11 06:14:36;;;;;;;;;62.00;49.00;;;;;-147.17;100.00;50245.59;5043814;28;51315;-61
2021/11/11 06:17:06;;;;;;;;;63.75;51.75;;;;;-147.17;100.00;50261.34;5045548;28;52783;-65
2021/11/11 06:19:37;;;;;;;;;58.25;49.00;;;;;-147.17;100.00;50253.47;5051793;28;53043;-62
2021/11/11 06:22:06;;;;;;;;;64.50;50.75;;;;;-147.17;100.00;50245.59;5045346;28;51239;-61
2021/11/11 06:24:32;;;;;;;;;60.75;49.00;;;;;-147.17;100.00;50255.44;5051132;28;51164;-62
2021/11/11 06:26:58;;;;;;;;;58.00;49.00;;;;;-147.17;100.00;50281.03;5051632;28;52014;-61
2021/11/11 06:29:23;;;;;;;;;64.50;51.00;;;;;-147.17;100.00;50257.41;5048434;28;50957;-61
2021/11/11 06:31:49;;;;;;;;;65.50;51.50;;;;;-147.17;100.00;50296.78;5048318;28;50971;-61
2021/11/11 06:34:14;;;;;;;;;54.50;46.75;;;;;-147.17;100.00;50231.81;5052698;28;51432;-61
2021/11/11 06:36:40;;;;;;;;;63.25;48.75;;;;;-147.17;100.00;50283.00;5038806;28;52783;-61
2021/11/11 06:39:05;;;;;;;;;58.75;48.75;;;;;-147.17;100.00;50265.28;5034111;28;51232;-61
2021/11/11 06:41:31;;;;;;;;;59.25;47.25;;;;;-147.17;100.00;50279.06;5045558;28;51195;-61
2021/11/11 06:43:57;;;;;;;;;51.75;42.00;;;;;-147.17;100.00;50281.03;5039264;28;51339;-61
2021/11/11 06:46:23;;;;;;;;;63.00;46.00;;;;;-147.17;100.00;50275.13;5040464;28;52756;-61
2021/11/11 06:48:48;;;;;;;;;68.25;53.75;;;;;-147.17;100.00;50265.28;5039679;28;51264;-61
2021/11/11 06:51:14;;;;;;;;;60.50;50.75;;;;;-147.17;100.00;50257.41;5043589;28;51322;-61
2021/11/11 06:53:39;;;;;;;;;70.50;55.25;;;;;-147.17;100.00;50273.16;5052212;28;51160;-62
2021/11/11 06:56:05;;;;;;;;;64.25;50.25;;;;;-147.17;100.00;50257.41;5047268;28;51100;-62
2021/11/11 06:58:30;;;;;;;;;65.25;51.25;;;;;-147.17;100.00;50233.78;5034159;28;51161;-62
2021/11/11 07:00:59;;;;;;;;;64.75;52.75;;;;;-147.17;100.00;50271.19;5056164;28;51879;-62
2021/11/11 07:03:25;;;;;;;;;67.75;53.50;;;;;-147.17;100.00;50265.28;5030974;28;51079;-62
2021/11/11 07:05:51;;;;;;;;;64.00;52.50;;;;;-147.17;100.00;50243.63;5046966;28;52785;-62
2021/11/11 07:08:17;;;;;;;;;62.75;49.50;;;;;-147.17;100.00;50243.63;5050484;28;51131;-62
2021/11/11 07:10:48;;;;;;;;;66.00;53.25;;;;;-147.17;100.00;50255.44;5047354;28;51475;-62
2021/11/11 07:13:14;;;;;;;;;57.00;46.50;;;;;-147.17;100.00;50231.81;5050227;28;51238;-62
2021/11/11 07:15:41;;;;;;;;;61.75;51.25;;;;;-147.17;100.00;50231.81;5047988;28;51787;-62
2021/11/11 07:18:09;;;;;;;;;62.50;51.50;;;;;-147.17;100.00;50279.06;5040550;28;51203;-62
2021/11/11 07:20:36;;;;;;;;;65.50;54.00;;;;;-147.17;100.00;50259.38;5048218;28;50946;-62
2021/11/11 07:23:04;;;;;;;;;63.50;49.75;;;;;-147.17;100.00;50255.44;5052087;28;51312;-62
2021/11/11 07:25:30;;;;;;;;;58.50;48.50;;;;;-147.17;100.00;50233.78;5043319;28;51868;-62
2021/11/11 07:27:57;;;;;;;;;55.25;48.00;;;;;-147.17;100.00;50247.56;5042040;28;51218;-62
2021/11/11 07:30:23;;;;;;;;;60.00;48.00;;;;;-147.17;100.00;50237.72;5048476;28;51060;-61
2021/11/11 07:32:50;;;;;;;;;64.00;48.75;;;;;-147.17;100.00;50259.38;5055375;28;51109;-61
2021/11/11 07:35:17;;;;;;;;;62.50;51.75;;;;;-147.17;100.00;50235.75;5053417;28;50979;-61
2021/11/11 07:37:46;;;;;;;;;59.25;49.50;;;;;-147.17;100.00;50259.38;5053593;28;51195;-62
2021/11/11 07:40:13;;;;;;;;;62.00;49.75;;;;;-147.17;100.00;50241.66;5049019;28;51536;-62
2021/11/11 07:42:40;;;;;;;;;61.75;47.75;;;;;-147.17;100.00;50249.53;5035424;28;51009;-62
2021/11/11 07:45:07;;;;;;;;;64.50;51.00;;;;;-147.17;100.00;50231.81;5041842;28;54208;-62
2021/11/11 07:47:33;;;;;;;;;59.75;49.50;;;;;-147.17;100.00;50218.03;5042429;28;50966;-62
2021/11/11 07:50:00;;;;;;;;;55.75;46.25;;;;;-147.17;100.00;50204.25;5053088;28;51146;-61
2021/11/11 07:52:27;;;;;;;;;59.50;48.75;;;;;-147.17;100.00;50253.47;5056790;28;51259;-61
2021/11/11 07:54:55;;;;;;;;;59.00;47.75;;;;;-147.17;100.00;50241.66;5050157;28;52343;-62
2021/11/11 07:57:27;;;;;;;;;55.50;46.75;;;;;-147.17;100.00;50220.00;5055277;28;51131;-61
2021/11/11 07:59:53;;;;;;;;;57.50;48.00;;;;;-147.17;100.00;50265.28;5049025;28;51230;-64
2021/11/11 08:02:20;;;;;;;;;62.25;48.25;;;;;-147.17;100.00;50259.38;5050844;28;51111;-62
2021/11/11 08:04:47;;;;;;;;;62.75;48.25;;;;;-147.17;100.00;50245.59;5039101;28;51175;-62
2021/11/11 08:07:14;;;;;;;;;63.50;49.25;;;;;-147.17;100.00;50261.34;5051527;28;51106;-63
2021/11/11 08:09:40;;;;;;;;;64.50;52.25;;;;;-147.17;100.00;50239.69;5042184;28;51224;-62
2021/11/11 08:12:06;;;;;;;;;61.50;51.25;;;;;-147.17;100.00;50233.78;5035122;28;51359;-64
2021/11/11 08:14:32;;;;;;;;;63.00;50.75;;;;;-147.17;100.00;50251.50;5049886;28;53923;-62
2021/11/11 08:16:57;;;;;;;;;66.00;54.00;;;;;-147.17;100.00;50233.78;5051928;28;51578;-61
2021/11/11 08:19:23;;;;;;;;;63.50;51.00;;;;;-147.17;100.00;50225.91;5053092;28;51237;-62
2021/11/11 08:21:49;;;;;;;;;68.00;52.00;;;;;-147.17;100.00;50229.84;5052646;28;51453;-62
2021/11/11 08:24:15;;;;;;;;;64.50;52.00;;;;;-147.17;100.00;50231.81;5054859;28;51359;-63
2021/11/11 08:26:42;;;;;;;;;65.25;52.50;;;;;-147.17;100.00;50202.28;5053703;28;51218;-62
2021/11/11 08:29:08;;;;;;;;;63.25;52.25;;;;;-147.17;100.00;50247.56;5050164;28;51943;-61
2021/11/11 08:31:34;;;;;;;;;66.75;52.75;;;;;-147.17;100.00;50231.81;5050796;28;51021;-64
2021/11/11 08:33:59;;;;;;;;;65.50;53.00;;;;;-147.17;100.00;50233.78;5040921;28;51135;-62
2021/11/11 08:36:26;;;;;;;;;62.75;48.25;;;;;-147.17;100.00;50267.25;5049615;28;51096;-62
2021/11/11 08:38:52;;;;;;;;;62.50;49.75;;;;;-147.17;100.00;50281.03;5049445;28;51512;-62
2021/11/11 08:41:18;;;;;;;;;65.75;53.00;;;;;-147.17;100.00;50257.41;5054876;28;50988;-63
2021/11/11 08:43:44;;;;;;;;;62.25;50.50;;;;;-147.17;100.00;50281.03;5052127;28;51261;-63
2021/11/11 08:46:10;;;;;;;;;69.50;55.00;;;;;-147.17;100.00;50312.53;5045010;28;51259;-62
2021/11/11 08:48:35;;;;;;;;;64.50;52.25;;;;;-147.17;100.00;50296.78;5048519;28;51195;-63
2021/11/11 08:51:01;;;;;;;;;59.25;47.75;;;;;-147.17;100.00;50320.38;5052882;28;51362;-62
2021/11/11 08:53:29;;;;;;;;;72.00;53.00;;;;;-147.17;100.00;50314.47;5047700;28;51723;-62
2021/11/11 08:55:55;;;;;;;;;71.00;55.50;;;;;-147.17;100.00;50332.19;5051313;28;50955;-61
2021/11/11 08:58:20;;;;;;;;;68.00;53.00;;;;;-147.17;100.00;50308.59;5046574;28;52864;-61
2021/11/11 09:00:52;;;;;;;;;65.00;51.50;;;;;-147.17;100.00;50296.78;5052111;28;51375;-61
2021/11/11 09:03:19;;;;;;;;;63.50;49.75;;;;;-147.17;100.00;50292.84;5050542;28;51161;-61
2021/11/11 09:05:48;;;;;;;;;62.00;51.50;;;;;-147.17;100.00;50324.31;5049106;28;52177;-62
2021/11/11 09:08:14;;;;;;;;;55.25;40.75;;;;;-147.17;100.00;50336.13;5041433;28;51263;-62
2021/11/11 09:10:46;;;;;;;;;68.75;54.00;;;;;-147.17;100.00;50304.66;5050943;28;51140;-61
2021/11/11 09:13:14;;;;;;;;;71.75;56.75;;;;;-147.17;100.00;50310.56;5044899;28;51829;-65
2021/11/11 09:15:39;;;;;;;;;66.00;53.00;;;;;-147.17;100.00;50316.44;5047832;28;51220;-65
2021/11/11 09:18:09;;;;;;;;;65.00;53.50;;;;;-147.17;100.00;50296.78;5048669;28;51177;-63
2021/11/11 09:20:38;;;;;;;;;70.25;55.50;;;;;-147.17;100.00;50318.41;5042168;28;51408;-63
2021/11/11 09:23:08;;;;;;;;;70.25;56.50;;;;;-147.17;100.00;50306.63;5047234;28;51144;-62
2021/11/11 09:25:35;;;;;;;;;70.00;55.75;;;;;-147.17;100.00;50310.56;5048717;28;51170;-63
2021/11/11 09:28:03;;;;;;;;;69.00;54.75;;;;;-147.17;100.00;50367.63;5045990;28;51120;-62
2021/11/11 09:30:37;;;;;;;;;68.50;54.50;;;;;-147.17;100.00;50316.44;5049749;28;51089;-61
2021/11/11 09:33:05;;;;;;;;;69.75;52.00;;;;;-147.17;100.00;50336.13;5042974;28;51960;-61
2021/11/11 09:35:31;;;;;;;;;69.00;54.75;;;;;-147.17;100.00;50328.25;5046674;28;51881;-61
2021/11/11 09:37:58;;;;;;;;;68.75;55.25;;;;;-147.17;100.00;50332.19;5027089;28;51194;-61
2021/11/11 09:40:27;;;;;;;;;76.50;57.75;;;;;-147.17;100.00;50326.28;5040602;28;51056;-61
2021/11/11 09:42:53;;;;;;;;;69.25;52.50;;;;;-147.17;100.00;50316.44;5040994;28;51802;-60
2021/11/11 09:45:23;;;;;;;;;72.50;57.75;;;;;-147.17;100.00;50332.19;5049332;28;51301;-61
2021/11/11 09:47:50;;;;;;;;;72.50;57.50;;;;;-147.17;100.00;50322.34;5055553;28;51319;-61
2021/11/11 09:50:19;;;;;;;;;71.00;56.00;;;;;-147.17;100.00;50330.22;5053073;27;51304;-60
2021/11/11 09:52:47;;;;;;;;;70.50;56.50;;;;;-147.17;100.00;50332.19;5050170;28;52865;-60
2021/11/11 10:00:45;;;;;;;;;70.00;55.50;;;;;-147.17;100.00;50340.06;5047680;28;51192;-63
2021/11/11 10:03:11;;;;;;;;;68.25;54.75;;;;;-147.17;100.00;50334.16;5045534;28;52070;-62
2021/11/11 10:05:36;;;;;;;;;71.75;57.00;;;;;-147.17;100.00;50324.31;5048443;28;51219;-62
2021/11/11 10:08:06;;;;;;;;;75.75;58.50;;;;;-147.17;100.00;50312.53;5049127;28;51620;-61
2021/11/11 10:10:40;;;;;;;;;67.50;54.00;;;;;-147.17;100.00;50359.75;5044517;28;51388;-61
2021/11/11 10:13:21;;;;;;;;;69.75;55.75;;;;;-147.17;100.00;50332.19;5048239;28;52815;-61
2021/11/11 10:16:07;;;;;;;;;73.75;58.50;;;;;-147.17;100.00;50344.00;5048472;28;51290;-62
2021/11/11 10:18:54;;;;;;;;;71.00;58.50;;;;;-147.17;100.00;50328.25;5045808;28;52759;-63
2021/11/11 10:21:29;;;;;;;;;76.25;60.75;;;;;-147.17;100.00;50320.38;5051979;28;51243;-64
2021/11/11 10:23:58;;;;;;;;;72.00;57.75;;;;;-147.17;100.00;50288.91;5045041;28;51672;-64
2021/11/11 10:26:43;;;;;;;;;74.00;58.25;;;;;-147.17;100.00;50292.84;5046978;28;51271;-65
2021/11/11 10:29:31;;;;;;;;;76.00;61.25;;;;;-147.17;100.00;50302.69;5047006;28;51465;-65
2021/11/11 10:32:11;;;;;;;;;74.75;59.00;;;;;-147.17;100.00;50288.91;5052225;28;51256;-73
2021/11/11 10:34:44;;;;;;;;;77.75;62.00;;;;;-147.17;100.00;50273.16;5043475;28;51510;-75
2021/11/11 10:37:10;;;;;;;;;79.75;63.00;;;;;-147.17;100.00;50304.66;5032431;28;51156;-72
2021/11/11 10:39:41;;;;;;;;;80.00;64.25;;;;;-147.17;100.00;50365.66;5036590;28;51218;-72
2021/11/11 10:42:16;;;;;;;;;78.00;62.50;;;;;-147.17;100.00;50414.88;5048081;28;51139;-72
2021/11/11 10:44:42;;;;;;;;;74.50;60.00;;;;;-147.17;100.00;50470.00;5046534;28;54055;-71
2021/11/11 10:47:11;;;;;;;;;73.25;59.75;;;;;-147.17;100.00;50458.19;5051420;28;51625;-72
2021/11/11 10:49:42;;;;;;;;;82.50;67.50;;;;;-147.17;100.00;50485.75;5051315;28;51119;-73
2021/11/11 10:52:31;;;;;;;;;77.50;61.75;;;;;-147.17;100.00;50473.94;5050442;28;51012;-72
2021/11/11 10:55:00;;;;;;;;;71.00;58.50;;;;;-147.17;100.00;50507.41;5051529;28;50972;-71
2021/11/11 10:57:31;;;;;;;;;75.33;60.33;;;;;-147.17;100.00;50505.44;5036696;28;50978;-76
2021/11/11 11:00:11;;;;;;;;;73.50;58.50;;;;;-147.17;100.00;50497.56;5044801;28;51101;-77
2021/11/11 11:02:52;;;;;;;;;68.50;55.75;;;;;-147.17;100.00;50548.75;5052586;28;51461;-77
2021/11/11 11:05:22;;;;;;;;;77.75;61.00;;;;;-147.17;100.00;50501.50;5035752;28;53055;-77
2021/11/11 11:07:52;;;;;;;;;74.50;58.25;;;;;-147.17;100.00;50536.94;5046771;28;51099;-75
2021/11/11 11:10:18;;;;;;;;;73.75;57.50;;;;;-147.17;100.00;50533.00;5063595;28;51856;-76
2021/11/11 11:12:44;;;;;;;;;72.25;56.75;;;;;-147.17;100.00;50580.25;5055477;28;51271;-76
2021/11/11 11:15:30;;;;;;;;;73.25;58.25;;;;;-147.17;100.00;50603.88;5054615;28;52189;-76
2021/11/11 11:17:56;;;;;;;;;69.25;56.00;;;;;-147.17;100.00;50611.75;5066556;28;51235;-77
2021/11/11 11:20:22;;;;;;;;;71.25;56.50;;;;;-147.17;100.00;50584.19;5046874;28;51635;-77
2021/11/11 11:22:47;;;;;;;;;71.00;56.00;;;;;-147.17;100.00;50548.75;5044622;28;51266;-77